Time;durP1;ratioP1;P1;durP2;ratioP2;P2;SDS_P1;SDS_P2;PMS_P1;PMS_P2;Temp;Humidity;BMP_temperature;BMP_pressure;BME280_temperature;BME280_humidity;BME280_pressure;Samples;Min_cycle;Max_cycle;Signal;HPM_P1;HPM_P2
2021/04/14 00:02:44;;;;;;;3.55;2.78;;;;;;;5.28;84.75;101321.88;5109467;28;20070;-88
2021/04/14 00:05:50;;;;;;;4.10;3.15;;;;;;;5.24;85.08;101319.47;5110525;28;20046;-79
2021/04/14 00:08:54;;;;;;;4.60;3.10;;;;;;;5.22;85.58;101316.03;5109378;28;20051;-88
2021/04/14 00:11:59;;;;;;;4.80;2.90;;;;;;;5.22;85.47;101318.69;5109941;28;20071;-84
2021/04/14 00:15:09;;;;;;;3.25;2.65;;;;;;;5.30;85.42;101318.31;5109587;28;20505;-88
2021/04/14 00:18:15;;;;;;;3.50;2.70;;;;;;;5.26;85.26;101325.56;5109920;28;20055;-89
2021/04/14 00:21:22;;;;;;;3.47;2.72;;;;;;;5.29;85.04;101328.09;5109776;28;20047;-90
2021/04/14 00:24:36;;;;;;;4.47;2.90;;;;;;;5.18;84.96;101323.28;5097719;28;20051;-89
2021/04/14 00:27:42;;;;;;;6.95;3.00;;;;;;;5.03;85.07;101320.56;5096169;28;20047;-82
2021/04/14 00:30:47;;;;;;;4.72;2.45;;;;;;;5.06;85.32;101321.25;5083136;28;20051;-83
2021/04/14 00:33:51;;;;;;;4.47;3.05;;;;;;;4.98;85.41;101322.56;5095701;28;20043;-85
2021/04/14 00:36:56;;;;;;;3.92;2.70;;;;;;;4.97;85.52;101318.19;5096942;28;20039;-82
2021/04/14 00:40:01;;;;;;;3.22;2.55;;;;;;;4.93;85.29;101317.50;5096540;28;20055;-82
2021/04/14 00:43:13;;;;;;;4.80;3.03;;;;;;;4.92;85.66;101322.88;5096843;28;20051;-91
2021/04/14 00:46:29;;;;;;;4.13;2.97;;;;;;;4.98;85.89;101314.59;5095743;28;20055;-83
2021/04/14 00:49:33;;;;;;;4.18;2.47;;;;;;;5.06;85.74;101315.91;5096363;28;20051;-87
2021/04/14 00:52:38;;;;;;;3.10;2.72;;;;;;;5.07;85.76;101314.13;5095181;28;20047;-88
2021/04/14 00:55:43;;;;;;;3.80;2.75;;;;;;;5.09;86.02;101312.25;5095942;28;20055;-84
2021/04/14 00:58:48;;;;;;;3.30;2.55;;;;;;;5.18;86.16;101307.31;5095572;28;20490;-82
2021/04/14 01:01:52;;;;;;;3.30;2.45;;;;;;;5.19;86.04;101309.06;5096196;28;20051;-86
2021/04/14 01:04:56;;;;;;;5.60;2.55;;;;;;;5.24;85.93;101307.03;5096150;28;20043;-86
2021/04/14 01:08:01;;;;;;;3.85;2.90;;;;;;;5.20;85.48;101304.59;5075759;28;20051;-85
2021/04/14 01:11:07;;;;;;;4.38;3.00;;;;;;;5.26;85.20;101298.94;5075822;28;20051;-88
2021/04/14 01:14:11;;;;;;;3.65;2.28;;;;;;;5.20;84.53;101296.63;5075837;28;20052;-83
2021/04/14 01:17:16;;;;;;;3.67;2.80;;;;;;;5.14;84.10;101294.25;5075743;28;20067;-88
2021/04/14 01:20:20;;;;;;;3.53;2.50;;;;;;;5.13;84.84;101296.09;5075814;28;20051;-87
2021/04/14 01:23:27;;;;;;;3.50;2.63;;;;;;;5.10;85.03;101293.56;5075481;28;20051;-85
2021/04/14 01:26:32;;;;;;;4.05;2.85;;;;;;;5.10;85.35;101293.56;5074656;28;20111;-87
2021/04/14 01:29:36;;;;;;;4.60;2.63;;;;;;;5.04;85.56;101287.66;5075853;28;20051;-87
2021/04/14 01:32:41;;;;;;;3.95;2.17;;;;;;;5.02;85.77;101292.22;5075295;28;20059;-85
2021/04/14 01:35:45;;;;;;;5.30;2.47;;;;;;;4.97;84.76;101284.47;5074374;28;20060;-86
2021/04/14 01:38:49;;;;;;;3.22;2.38;;;;;;;4.93;84.39;101290.03;5075480;28;20059;-76
2021/04/14 01:41:55;;;;;;;3.15;2.40;;;;;;;4.82;84.21;101279.03;5075344;28;20119;-87
2021/04/14 01:45:00;;;;;;;2.92;2.30;;;;;;;4.79;84.34;101281.88;5074356;28;20127;-84
2021/04/14 01:48:06;;;;;;;3.08;2.22;;;;;;;4.74;84.44;101286.56;5075389;28;20055;-87
2021/04/14 01:51:10;;;;;;;4.05;2.13;;;;;;;4.72;84.87;101283.94;5075316;28;20063;-88
2021/04/14 01:54:15;;;;;;;2.78;2.20;;;;;;;4.72;84.80;101278.63;5075029;28;20052;-87
2021/04/14 01:57:19;;;;;;;2.58;2.13;;;;;;;4.71;85.22;101276.06;5074940;28;20059;-88
2021/04/14 02:00:43;;;;;;;2.97;2.10;;;;;;;4.69;84.72;101283.25;5074290;28;20052;-86
2021/04/14 02:03:48;;;;;;;4.80;1.92;;;;;;;4.62;84.52;101280.00;5073972;28;20052;-83
2021/04/14 02:06:53;;;;;;;5.22;2.30;;;;;;;4.63;84.41;101272.91;5074240;28;20077;-83
2021/04/14 02:09:57;;;;;;;2.47;2.03;;;;;;;4.57;84.34;101279.38;5074675;28;20047;-86
2021/04/14 02:13:05;;;;;;;3.25;2.00;;;;;;;4.59;84.85;101289.00;5074276;28;20071;-89
2021/04/14 02:16:20;;;;;;;6.22;2.33;;;;;;;4.52;85.15;101286.69;5074618;28;20052;-89
2021/04/14 02:19:26;;;;;;;5.03;2.38;;;;;;;4.39;85.08;101278.47;5074681;28;20059;-82
2021/04/14 02:22:31;;;;;;;5.50;2.38;;;;;;;4.42;84.90;101274.81;5092188;28;20059;-80
2021/04/14 02:25:36;;;;;;;3.60;2.58;;;;;;;4.42;84.75;101272.16;5096141;28;20046;-76
2021/04/14 02:28:44;;;;;;;3.25;2.53;;;;;;;4.39;84.95;101270.50;5095144;28;20047;-78
2021/04/14 02:31:49;;;;;;;3.30;2.60;;;;;;;4.36;84.78;101268.00;5084353;28;20051;-82
2021/04/14 02:34:53;;;;;;;3.53;2.50;;;;;;;4.38;85.11;101268.78;5074465;28;20063;-82
2021/04/14 02:37:57;;;;;;;5.15;2.55;;;;;;;4.35;85.06;101268.03;5073968;28;20498;-83
2021/04/14 02:41:04;;;;;;;3.75;2.53;;;;;;;4.38;85.01;101270.56;5074370;28;20399;-80
2021/04/14 02:44:08;;;;;;;3.35;2.85;;;;;;;4.24;85.14;101273.03;5073206;28;20054;-86
2021/04/14 02:47:13;;;;;;;4.00;2.53;;;;;;;4.21;85.20;101268.72;5072985;28;20107;-88
2021/04/14 02:50:18;;;;;;;3.63;2.70;;;;;;;4.17;85.82;101266.28;5074166;28;20051;-84
2021/04/14 02:53:30;;;;;;;8.55;2.78;;;;;;;4.22;85.85;101262.44;5073999;28;20055;-83
2021/04/14 02:56:34;;;;;;;3.72;2.53;;;;;;;4.28;85.95;101264.81;5074050;28;20052;-83
2021/04/14 02:59:38;;;;;;;3.33;2.60;;;;;;;4.27;86.36;101260.44;5073819;28;20059;-84
2021/04/14 03:02:43;;;;;;;4.68;2.20;;;;;;;4.26;85.76;101265.84;5073668;28;20051;-86
2021/04/14 03:05:48;;;;;;;3.58;2.30;;;;;;;4.27;85.82;101267.56;5073242;28;20067;-84
2021/04/14 03:08:53;;;;;;;3.13;2.20;;;;;;;4.18;85.32;101258.22;5073223;28;20059;-87
2021/04/14 03:11:57;;;;;;;2.70;2.17;;;;;;;4.26;84.82;101256.06;5060427;28;20044;-82
2021/04/14 03:15:02;;;;;;;3.30;2.10;;;;;;;4.25;84.53;101261.44;5073418;28;20055;-85
2021/04/14 03:18:08;;;;;;;2.85;1.98;;;;;;;4.19;84.27;101253.78;5073581;28;20048;-87
2021/04/14 03:21:12;;;;;;;2.78;1.63;;;;;;;4.25;84.08;101262.31;5072102;28;20040;-87
2021/04/14 03:24:16;;;;;;;2.90;1.70;;;;;;;4.12;83.83;101252.34;5073582;28;20055;-87
2021/04/14 03:27:21;;;;;;;3.20;2.17;;;;;;;4.00;83.87;101255.59;5072661;28;20052;-87
2021/04/14 03:30:26;;;;;;;3.40;2.03;;;;;;;4.02;84.14;101249.25;5071907;28;20056;-87
2021/04/14 03:33:30;;;;;;;3.65;2.38;;;;;;;3.97;84.50;101261.03;5071361;28;20071;-89
2021/04/14 03:36:34;;;;;;;3.95;2.28;;;;;;;3.93;84.48;101266.47;5072551;28;20051;-85
2021/04/14 03:39:39;;;;;;;3.30;2.30;;;;;;;3.88;84.88;101260.50;5073249;28;20498;-83
2021/04/14 03:42:45;;;;;;;4.68;2.63;;;;;;;3.89;85.09;101261.38;5073018;28;20514;-83
2021/04/14 03:45:52;;;;;;;3.95;2.72;;;;;;;3.89;85.46;101266.69;5072314;28;20055;-86
2021/04/14 03:48:57;;;;;;;4.57;2.60;;;;;;;3.92;84.99;101263.91;5072956;28;20051;-83
2021/04/14 03:52:01;;;;;;;3.20;2.78;;;;;;;3.96;84.78;101265.47;5071523;28;20517;-83
2021/04/14 03:55:14;;;;;;;3.13;2.40;;;;;;;3.95;84.57;101277.88;5071685;28;20060;-87
2021/04/14 03:58:19;;;;;;;4.55;2.78;;;;;;;3.93;84.53;101263.81;5072792;28;20073;-80
2021/04/14 04:01:29;;;;;;;3.85;2.67;;;;;;;3.95;85.12;101269.03;5063824;28;20067;-87
2021/04/14 04:04:33;;;;;;;4.97;2.75;;;;;;;3.93;84.58;101271.78;5077054;28;20047;-86
2021/04/14 04:07:38;;;;;;;3.30;2.40;;;;;;;3.88;84.85;101267.59;5076235;28;20052;-86
2021/04/14 04:10:42;;;;;;;6.85;2.30;;;;;;;3.90;84.87;101269.25;5077017;28;20048;-90
2021/04/14 04:13:48;;;;;;;3.38;2.30;;;;;;;3.86;84.94;101266.81;5076500;28;20047;-86
2021/04/14 04:16:52;;;;;;;4.07;2.60;;;;;;;3.83;85.01;101267.81;5082867;28;20493;-91
2021/04/14 04:19:56;;;;;;;4.00;2.17;;;;;;;3.89;84.78;101261.38;5091391;28;20056;-84
2021/04/14 04:23:02;;;;;;;5.22;2.90;;;;;;;3.86;84.62;101270.34;5076684;28;20056;-86
2021/04/14 04:26:07;;;;;;;3.47;2.60;;;;;;;3.90;84.39;101265.78;5076200;28;20055;-81
2021/04/14 04:29:11;;;;;;;3.42;2.75;;;;;;;3.78;84.48;101276.91;5075831;28;20047;-80
2021/04/14 04:32:15;;;;;;;4.63;2.55;;;;;;;3.74;84.47;101268.25;5076245;28;20063;-81
2021/04/14 04:35:20;;;;;;;5.03;2.95;;;;;;;3.79;84.36;101274.22;5076476;28;20407;-89
2021/04/14 04:38:25;;;;;;;3.80;2.85;;;;;;;3.77;84.28;101288.50;5076431;28;20047;-84
2021/04/14 04:41:29;;;;;;;6.47;2.78;;;;;;;3.75;84.68;101279.75;5076267;28;20063;-89
2021/04/14 04:44:34;;;;;;;3.97;2.40;;;;;;;3.75;84.64;101283.22;5063983;28;20055;-85
2021/04/14 04:47:39;;;;;;;3.55;2.45;;;;;;;3.79;84.60;101287.50;5076319;28;20388;-88
2021/04/14 04:50:43;;;;;;;3.55;2.65;;;;;;;3.88;84.32;101289.72;5075385;28;20063;-83
2021/04/14 04:53:47;;;;;;;3.13;2.50;;;;;;;3.97;84.21;101284.94;5075748;28;20047;-88
2021/04/14 04:56:52;;;;;;;3.45;2.40;;;;;;;4.10;83.54;101286.09;5076415;28;20048;-85
2021/04/14 04:59:56;;;;;;;4.63;2.35;;;;;;;4.12;82.88;101287.75;5076064;28;20044;-88
2021/04/14 05:03:01;;;;;;;5.80;2.47;;;;;;;4.28;82.38;101291.41;5075968;28;20050;-85
2021/04/14 05:06:05;;;;;;;3.08;2.38;;;;;;;4.34;81.95;101288.47;5076154;28;20043;-85
2021/04/14 05:09:12;;;;;;;7.18;2.70;;;;;;;4.50;81.60;101300.06;5076032;28;20044;-84
2021/04/14 05:12:17;;;;;;;78.72;58.00;;;;;;;4.76;80.66;101297.97;5074312;28;20043;-79
2021/04/14 05:15:25;;;;;;;88.95;59.97;;;;;;;5.13;79.38;101304.06;5076379;28;20055;-86
2021/04/14 05:18:30;;;;;;;22.58;12.50;;;;;;;5.55;77.45;101314.31;5075886;28;20056;-81
2021/04/14 05:21:39;;;;;;;5.25;2.28;;;;;;;5.93;75.92;101306.97;5095788;28;20051;-77
2021/04/14 05:24:44;;;;;;;5.22;2.20;;;;;;;6.27;74.35;101308.72;5096218;28;20062;-76
2021/04/14 05:27:51;;;;;;;7.30;2.53;;;;;;;6.77;72.19;101317.41;5096914;28;20050;-76
2021/04/14 05:30:56;;;;;;;3.65;1.73;;;;;;;7.20;71.05;101322.00;5079585;28;20490;-80
2021/04/14 05:34:00;;;;;;;8.60;3.38;;;;;;;7.66;68.14;101322.78;5074519;28;20455;-87
2021/04/14 05:37:04;;;;;;;10.45;4.93;;;;;;;8.27;66.24;101322.56;5074633;28;20063;-83
2021/04/14 05:40:09;;;;;;;8.70;3.78;;;;;;;8.97;64.07;101318.03;5093426;28;20058;-86
2021/04/14 05:43:18;;;;;;;7.72;4.30;;;;;;;9.90;63.11;101320.63;5076231;28;20116;-81
2021/04/14 05:46:22;;;;;;;5.28;3.28;;;;;;;9.84;62.58;101329.94;5074707;28;20048;-88
2021/04/14 05:49:27;;;;;;;7.45;2.72;;;;;;;10.15;59.41;101320.63;5084712;28;20513;-85
2021/04/14 05:52:35;;;;;;;5.53;2.83;;;;;;;9.66;60.13;101324.03;5091040;28;20051;-84
2021/04/14 05:55:39;;;;;;;5.97;2.78;;;;;;;9.27;61.61;101326.72;5088403;28;20039;-83
2021/04/14 05:58:44;;;;;;;13.60;3.83;;;;;;;9.16;62.58;101329.25;5074104;28;20059;-79
2021/04/14 06:01:49;;;;;;;8.00;3.00;;;;;;;9.09;62.25;101327.94;5074787;28;20529;-82
2021/04/14 06:04:53;;;;;;;6.10;2.40;;;;;;;9.02;62.61;101330.19;5074531;28;20051;-81
2021/04/14 06:07:59;;;;;;;5.30;2.38;;;;;;;9.22;62.84;101325.31;5072082;28;20226;-79
2021/04/14 06:11:04;;;;;;;6.65;1.67;;;;;;;9.25;62.87;101328.66;5079052;28;20059;-79
2021/04/14 06:14:10;;;;;;;6.07;1.90;;;;;;;9.44;62.67;101326.44;5087434;28;20075;-78
2021/04/14 06:17:15;;;;;;;8.77;1.65;;;;;;;9.89;61.43;101341.22;5080071;28;20426;-83
2021/04/14 06:20:22;;;;;;;4.75;1.92;;;;;;;11.00;58.28;101343.00;5091538;28;20051;-79
2021/04/14 06:23:27;;;;;;;6.95;2.47;;;;;;;10.26;58.66;101340.38;5073719;28;20490;-78
2021/04/14 06:26:39;;;;;;;4.47;2.30;;;;;;;10.70;57.32;101333.66;5082368;28;20051;-78
2021/04/14 06:29:43;;;;;;;8.30;2.28;;;;;;;11.15;56.20;101334.78;5093162;28;20047;-79
2021/04/14 06:32:49;;;;;;;5.95;1.95;;;;;;;10.71;57.68;101338.06;5081195;28;20047;-78
2021/04/14 06:35:55;;;;;;;6.40;2.05;;;;;;;10.04;60.11;101336.59;5078715;28;20055;-77
2021/04/14 06:39:05;;;;;;;5.13;2.20;;;;;;;9.85;61.21;101345.06;5080189;28;20059;-77
2021/04/14 06:43:02;;;;;;;4.93;2.05;;;;;;;10.91;58.67;101343.66;5090223;28;20047;-78
2021/04/14 06:46:32;;;;;;;7.03;2.70;;;;;;;11.13;58.17;101338.41;5023821;28;20527;-78
2021/04/14 06:49:52;;;;;;;6.32;2.45;;;;;;;11.85;55.75;101341.91;5039222;28;20044;-80
2021/04/14 06:53:05;;;;;;;8.85;2.08;;;;;;;11.52;57.04;101349.84;5077008;28;20070;-78
2021/04/14 06:56:15;;;;;;;5.20;2.40;;;;;;;11.99;55.66;101335.47;5113090;28;20058;-83
2021/04/14 06:59:21;;;;;;;4.40;2.25;;;;;;;12.18;54.44;101330.34;5092077;28;20044;-82
2021/04/14 07:02:37;;;;;;;5.22;2.20;;;;;;;13.63;50.18;101323.69;5073290;28;20391;-84
2021/04/14 07:05:45;;;;;;;4.63;2.70;;;;;;;16.32;44.71;101326.03;5093546;28;20051;-85
2021/04/14 07:09:04;;;;;;;3.80;1.90;;;;;;;20.22;35.38;101306.44;5090301;28;20051;-80
2021/04/14 07:12:18;;;;;;;7.55;3.20;;;;;;;23.99;29.91;101306.75;5072878;28;20433;-84
2021/04/14 07:15:22;;;;;;;4.68;2.20;;;;;;;27.32;24.73;101300.13;5078324;28;20059;-87
2021/04/14 07:18:45;;;;;;;2.70;1.25;;;;;;;28.74;22.22;101288.09;5084451;28;20055;-86
2021/04/14 07:21:55;;;;;;;3.03;1.42;;;;;;;30.75;20.32;101295.38;5078728;28;20059;-84
2021/04/14 07:25:10;;;;;;;5.32;2.28;;;;;;;32.13;19.00;101293.06;5081260;28;20051;-83
2021/04/14 07:28:36;;;;;;;5.57;2.63;;;;;;;32.77;18.65;101302.66;5093034;28;20065;-84
2021/04/14 07:31:52;;;;;;;6.10;1.13;;;;;;;35.97;16.11;101293.50;5093357;28;20051;-81
2021/04/14 07:35:14;;;;;;;3.55;0.88;;;;;;;36.71;14.70;101293.72;5097111;28;20514;-82
2021/04/14 07:38:32;;;;;;;3.50;1.00;;;;;;;35.71;15.03;101293.50;5102297;28;20043;-83
2021/04/14 07:41:50;;;;;;;1.80;0.80;;;;;;;33.57;16.39;101296.41;5088562;28;20114;-83
2021/04/14 07:45:15;;;;;;;2.80;0.90;;;;;;;33.96;16.31;101299.81;5096802;28;20059;-83
2021/04/14 07:48:32;;;;;;;3.88;0.90;;;;;;;36.52;14.64;101290.69;5087576;28;20044;-82
2021/04/14 07:51:36;;;;;;;2.72;0.90;;;;;;;36.70;14.29;101301.28;5091874;28;20509;-83
2021/04/14 07:54:44;;;;;;;1.92;1.02;;;;;;;32.69;15.98;101300.31;5093014;28;20063;-82
2021/04/14 07:57:49;;;;;;;3.72;0.90;;;;;;;34.67;15.02;101293.69;5095050;28;20047;-83
2021/04/14 08:00:54;;;;;;;3.72;1.20;;;;;;;34.22;15.64;101298.94;5095527;28;20059;-83
2021/04/14 08:04:30;;;;;;;3.15;0.93;;;;;;;37.08;13.72;101291.34;5096532;28;20398;-79
2021/04/14 08:07:39;;;;;;;2.03;0.95;;;;;;;38.06;13.08;101291.28;5091446;28;20047;-82
2021/04/14 08:10:58;;;;;;;2.55;1.10;;;;;;;37.89;13.64;101286.09;5087942;28;20063;-81
2021/04/14 08:14:17;;;;;;;2.95;1.10;;;;;;;34.33;15.46;101288.69;5086672;28;20047;-84
2021/04/14 08:17:24;;;;;;;3.13;1.40;;;;;;;36.02;14.18;101286.00;5089268;28;20047;-84
2021/04/14 08:20:32;;;;;;;5.25;1.33;;;;;;;34.53;14.00;101294.41;5086745;28;20402;-84
2021/04/14 08:23:37;;;;;;;4.43;1.30;;;;;;;33.41;15.05;101295.38;5082830;28;20060;-83
2021/04/14 08:26:55;;;;;;;6.55;1.40;;;;;;;34.11;15.08;101288.84;5092137;28;20501;-82
2021/04/14 08:30:21;;;;;;;2.20;1.38;;;;;;;33.54;14.99;101294.16;5093444;28;20047;-83
2021/04/14 08:33:26;;;;;;;2.08;1.20;;;;;;;33.06;15.28;101289.41;5095600;28;20051;-83
2021/04/14 08:36:39;;;;;;;2.85;1.13;;;;;;;33.27;15.45;101287.72;5095935;28;20394;-83
2021/04/14 08:39:54;;;;;;;3.00;1.52;;;;;;;32.92;16.05;101287.25;5095322;28;20101;-82
2021/04/14 08:43:13;;;;;;;4.28;1.50;;;;;;;32.08;16.98;101286.56;5089685;28;20047;-83
2021/04/14 08:46:32;;;;;;;5.20;1.30;;;;;;;30.50;17.69;101293.94;5082316;28;20043;-82
2021/04/14 08:49:38;;;;;;;2.20;1.42;;;;;;;29.56;18.54;101286.56;5095117;28;20062;-82
2021/04/14 08:52:49;;;;;;;2.15;1.20;;;;;;;31.00;17.68;101281.22;5087373;28;20047;-79
2021/04/14 08:55:53;;;;;;;5.57;1.70;;;;;;;27.85;20.74;101293.19;5081651;28;20051;-78
2021/04/14 08:58:58;;;;;;;3.08;1.80;;;;;;;23.44;24.68;101289.19;5088987;28;21693;-82
2021/04/14 09:02:05;;;;;;;3.53;2.13;;;;;;;20.23;29.58;101293.69;5095331;28;20054;-82
2021/04/14 09:05:14;;;;;;;3.10;1.95;;;;;;;19.29;32.00;101301.50;5094792;28;20403;-81
2021/04/14 09:08:22;;;;;;;3.03;1.67;;;;;;;18.12;33.66;101297.78;5113166;28;20050;-82
2021/04/14 09:11:30;;;;;;;3.42;1.60;;;;;;;17.36;34.03;101298.50;5115926;28;20066;-82
2021/04/14 09:14:35;;;;;;;2.78;1.98;;;;;;;17.32;35.78;101287.13;5100759;28;20063;-79
2021/04/14 09:17:43;;;;;;;2.80;1.95;;;;;;;17.00;36.39;101286.78;5091711;28;20051;-82
2021/04/14 09:20:48;;;;;;;2.35;1.50;;;;;;;16.69;35.10;101288.97;5095181;28;20403;-82
2021/04/14 09:24:06;;;;;;;2.63;1.50;;;;;;;16.03;36.70;101284.66;5095305;28;20063;-81
2021/04/14 09:27:36;;;;;;;2.28;1.70;;;;;;;16.17;37.14;101281.50;5082905;28;20395;-83
2021/04/14 09:30:50;;;;;;;2.10;1.70;;;;;;;16.11;38.95;101276.66;5105514;28;20397;-82
2021/04/14 09:34:40;;;;;;;4.97;2.13;;;;;;;15.88;37.86;101276.13;5115610;28;20508;-82
2021/04/14 09:37:45;;;;;;;5.00;2.20;;;;;;;15.47;38.47;101279.19;5092342;28;20051;-83
2021/04/14 09:41:05;;;;;;;3.80;2.33;;;;;;;15.61;37.25;101276.03;5071216;28;20047;-83
2021/04/14 09:44:17;;;;;;;2.88;2.17;;;;;;;16.04;37.07;101259.28;5094870;28;20051;-83
2021/04/14 09:47:28;;;;;;;3.25;2.15;;;;;;;15.36;38.32;101271.19;5094346;28;20117;-83
2021/04/14 09:50:32;;;;;;;4.03;2.53;;;;;;;14.85;38.08;101266.91;5094346;28;20059;-83
2021/04/14 09:53:37;;;;;;;4.57;2.78;;;;;;;14.89;38.18;101259.34;5094622;28;20067;-83
2021/04/14 09:56:49;;;;;;;3.72;2.45;;;;;;;14.90;37.98;101259.22;5092952;28;20517;-82
2021/04/14 09:59:54;;;;;;;3.53;2.65;;;;;;;15.38;36.75;101258.41;5075577;28;20051;-81
2021/04/14 10:03:09;;;;;;;4.70;2.13;;;;;;;15.21;38.11;101259.94;5094258;28;20410;-80
2021/04/14 10:06:22;;;;;;;4.50;2.20;;;;;;;15.26;39.07;101254.97;5088830;28;20050;-77
2021/04/14 10:09:34;;;;;;;4.95;2.75;;;;;;;14.86;39.56;101249.66;5094340;28;20051;-79
2021/04/14 10:12:39;;;;;;;3.45;2.30;;;;;;;15.00;37.95;101237.59;5073779;28;20052;-80
2021/04/14 10:15:45;;;;;;;3.20;2.40;;;;;;;15.35;36.67;101247.84;5084118;28;20505;-79
2021/04/14 10:18:59;;;;;;;3.00;2.10;;;;;;;15.33;35.67;101237.16;5083758;28;20048;-81
2021/04/14 10:22:28;;;;;;;4.55;2.20;;;;;;;15.36;37.24;101236.00;5093247;28;20047;-81
2021/04/14 10:25:36;;;;;;;2.95;2.08;;;;;;;15.10;36.80;101226.78;5093953;28;20055;-80
2021/04/14 10:28:42;;;;;;;2.80;1.85;;;;;;;14.66;37.25;101226.34;5092487;28;20521;-79
2021/04/14 10:31:47;;;;;;;2.75;1.83;;;;;;;14.62;37.96;101226.72;5087984;28;20407;-81
2021/04/14 10:34:51;;;;;;;2.97;2.00;;;;;;;14.55;39.00;101220.16;5093682;28;20055;-83
2021/04/14 10:37:56;;;;;;;2.90;1.92;;;;;;;14.58;38.41;101218.06;5093626;28;20047;-83
2021/04/14 10:41:14;;;;;;;3.42;2.17;;;;;;;14.81;38.41;101219.50;5093635;28;20145;-84
2021/04/14 10:44:21;;;;;;;3.78;2.25;;;;;;;14.64;37.94;101214.78;5093068;28;20043;-80
2021/04/14 10:47:32;;;;;;;2.85;1.63;;;;;;;14.92;37.26;101205.88;5073601;28;20048;-80
2021/04/14 10:50:36;;;;;;;7.15;2.35;;;;;;;14.84;38.56;101211.13;5088919;28;20063;-80
2021/04/14 10:53:42;;;;;;;4.05;2.00;;;;;;;14.85;38.98;101214.69;5092711;28;20043;-80
2021/04/14 10:57:04;;;;;;;2.78;1.70;;;;;;;14.89;38.40;101199.88;5093336;28;20071;-80
2021/04/14 11:00:09;;;;;;;3.97;2.13;;;;;;;14.90;37.50;101194.34;5092778;28;20055;-78
2021/04/14 11:03:17;;;;;;;4.03;2.22;;;;;;;14.69;39.08;101199.00;5093528;28;20063;-82
2021/04/14 11:06:22;;;;;;;3.17;2.45;;;;;;;14.29;38.63;101199.03;5091172;28;20051;-80
2021/04/14 11:09:29;;;;;;;3.10;2.50;;;;;;;14.63;38.32;101187.91;5093493;28;20051;-82
2021/04/14 11:12:35;;;;;;;3.65;2.60;;;;;;;14.51;38.45;101187.19;5105758;28;20509;-83
2021/04/14 11:15:44;;;;;;;3.88;2.47;;;;;;;14.56;40.13;101184.94;5095791;28;20055;-80
2021/04/14 11:18:48;;;;;;;4.28;2.83;;;;;;;14.36;39.51;101183.19;5072935;28;20071;-81
2021/04/14 11:22:10;;;;;;;6.93;3.17;;;;;;;14.53;39.39;101181.63;5080795;28;20410;-81
2021/04/14 11:25:24;;;;;;;6.18;2.38;;;;;;;14.44;39.44;101174.38;5079477;28;20048;-80
2021/04/14 11:28:39;;;;;;;3.50;2.80;;;;;;;14.18;39.27;101169.44;5088809;28;20051;-81
2021/04/14 11:31:47;;;;;;;5.00;2.45;;;;;;;14.03;40.34;101175.34;5084468;28;20047;-82
2021/04/14 11:34:58;;;;;;;3.95;2.58;;;;;;;13.98;38.99;101172.22;5092310;28;20067;-84
2021/04/14 11:38:03;;;;;;;3.80;2.53;;;;;;;14.10;38.69;101171.97;5088875;28;20059;-85
2021/04/14 11:41:35;;;;;;;3.10;2.47;;;;;;;13.97;38.74;101174.09;5083114;28;20043;-82
2021/04/14 11:44:52;;;;;;;4.07;2.92;;;;;;;14.01;39.46;101170.09;5087065;28;20047;-82
2021/04/14 11:48:10;;;;;;;7.55;3.05;;;;;;;13.84;38.89;101162.66;5073700;28;20255;-83
2021/04/14 11:51:29;;;;;;;4.72;2.67;;;;;;;13.90;40.27;101163.97;5089841;28;20062;-83
2021/04/14 11:54:35;;;;;;;3.42;2.55;;;;;;;14.11;39.04;101153.94;5088813;28;20047;-84
2021/04/14 11:57:43;;;;;;;3.65;2.53;;;;;;;14.18;39.02;101155.94;5089904;28;20043;-81
2021/04/14 12:00:47;;;;;;;3.85;2.30;;;;;;;14.28;38.78;101148.72;5089790;28;20051;-82
2021/04/14 12:03:52;;;;;;;3.70;2.58;;;;;;;14.46;38.46;101148.94;5090900;28;20059;-82
2021/04/14 12:06:56;;;;;;;3.20;2.30;;;;;;;14.41;36.02;101148.50;5092785;28;20047;-83
2021/04/14 12:10:02;;;;;;;4.63;2.75;;;;;;;14.36;35.35;101142.66;5093041;28;20043;-84
2021/04/14 12:13:22;;;;;;;3.10;2.13;;;;;;;14.51;36.01;101143.97;5092778;28;20043;-84
2021/04/14 12:16:27;;;;;;;3.70;2.63;;;;;;;14.47;37.00;101139.81;5092988;28;20051;-84
2021/04/14 12:19:33;;;;;;;4.35;3.13;;;;;;;14.34;38.01;101134.69;5094121;28;20055;-83
2021/04/14 12:22:37;;;;;;;3.60;2.70;;;;;;;14.10;37.59;101131.47;5096581;28;20059;-81
2021/04/14 12:25:41;;;;;;;3.70;2.78;;;;;;;14.12;38.32;101132.19;5096767;28;20498;-81
2021/04/14 12:28:46;;;;;;;3.58;2.53;;;;;;;14.07;37.73;101133.63;5096254;28;20051;-82
2021/04/14 12:31:51;;;;;;;3.53;2.28;;;;;;;14.23;38.30;101123.13;5096563;28;20067;-85
2021/04/14 12:34:55;;;;;;;4.40;2.72;;;;;;;14.14;36.99;101127.53;5095932;28;20498;-83
2021/04/14 12:38:03;;;;;;;4.95;2.42;;;;;;;14.10;37.42;101117.13;5096321;28;20055;-83
2021/04/14 12:41:08;;;;;;;4.20;2.92;;;;;;;14.07;36.10;101115.56;5096253;28;20402;-82
2021/04/14 12:44:12;;;;;;;3.90;2.40;;;;;;;14.06;35.79;101121.09;5095530;28;20506;-81
2021/04/14 12:47:20;;;;;;;3.72;2.95;;;;;;;14.06;37.18;101113.00;5092117;28;20044;-83
2021/04/14 12:50:24;;;;;;;4.85;2.72;;;;;;;14.08;35.80;101111.00;5091759;28;20047;-80
2021/04/14 12:53:49;;;;;;;3.17;2.70;;;;;;;13.96;36.95;101104.03;5086682;28;20051;-82
2021/04/14 12:56:58;;;;;;;7.93;2.90;;;;;;;13.82;36.24;101099.00;5082188;28;20513;-79
2021/04/14 13:00:08;;;;;;;5.05;3.28;;;;;;;13.92;36.58;101094.50;5095924;28;20055;-83
2021/04/14 13:03:23;;;;;;;4.18;2.40;;;;;;;13.98;35.32;101089.41;5095270;28;20066;-82
2021/04/14 13:06:40;;;;;;;3.70;2.67;;;;;;;14.01;36.11;101091.81;5094516;28;20118;-84
2021/04/14 13:09:45;;;;;;;4.80;2.60;;;;;;;14.14;34.80;101081.63;5093892;28;20047;-82
2021/04/14 13:12:49;;;;;;;45.33;33.70;;;;;;;14.10;35.44;101077.47;5075010;28;20051;-82
2021/04/14 13:16:04;;;;;;;6.35;3.90;;;;;;;14.21;37.58;101073.81;5086245;28;20044;-84
2021/04/14 13:19:13;;;;;;;6.80;5.22;;;;;;;14.18;37.54;101069.53;5074667;28;20056;-85
2021/04/14 13:22:45;;;;;;;15.10;10.52;;;;;;;14.28;36.96;101066.84;5075322;28;20040;-80
2021/04/14 13:25:54;;;;;;;6.63;2.47;;;;;;;14.57;38.95;101073.13;5075658;28;20059;-80
2021/04/14 13:29:10;;;;;;;7.00;2.72;;;;;;;14.99;37.55;101069.13;5087588;28;20062;-78
2021/04/14 13:32:30;;;;;;;8.13;2.80;;;;;;;15.21;37.27;101064.38;5095386;28;20055;-79
2021/04/14 13:35:44;;;;;;;5.80;2.70;;;;;;;15.10;35.00;101056.44;5089607;28;20056;-79
2021/04/14 13:38:53;;;;;;;4.13;2.25;;;;;;;14.90;34.73;101056.47;5094604;28;20047;-79
2021/04/14 13:42:04;;;;;;;4.25;2.20;;;;;;;14.91;36.82;101052.75;5090985;28;20047;-81
2021/04/14 13:45:17;;;;;;;3.72;2.42;;;;;;;14.91;35.78;101047.34;5094652;28;20063;-80
2021/04/14 13:48:48;;;;;;;3.08;2.20;;;;;;;14.75;36.74;101044.41;5094900;28;20118;-80
2021/04/14 13:52:01;;;;;;;3.97;2.47;;;;;;;14.54;36.09;101040.16;5081099;28;20500;-79
2021/04/14 13:55:06;;;;;;;3.88;2.40;;;;;;;14.45;36.57;101036.47;5088904;28;20059;-79
2021/04/14 13:58:21;;;;;;;4.70;2.38;;;;;;;14.45;36.44;101031.06;5094098;28;20047;-80
2021/04/14 14:01:30;;;;;;;3.47;2.10;;;;;;;14.60;36.25;101026.06;5092684;28;20394;-80
2021/04/14 14:04:36;;;;;;;3.13;2.20;;;;;;;14.56;35.26;101013.84;5094388;28;20063;-79
2021/04/14 14:07:51;;;;;;;4.18;2.10;;;;;;;14.60;35.23;101020.66;5094257;28;20051;-80
2021/04/14 14:11:25;;;;;;;3.20;2.05;;;;;;;14.54;36.26;101016.69;5093950;28;20604;-81
2021/04/14 14:14:29;;;;;;;3.38;2.10;;;;;;;14.67;36.37;101017.25;5032232;28;20049;-78
2021/04/14 14:17:41;;;;;;;3.35;2.00;;;;;;;14.71;36.46;101012.41;5031790;28;20052;-79
2021/04/14 14:20:46;;;;;;;3.83;1.85;;;;;;;14.70;36.14;101013.41;5020515;28;20052;-78
2021/04/14 14:23:51;;;;;;;3.50;2.20;;;;;;;14.67;35.82;101010.97;5031604;28;20049;-80
2021/04/14 14:26:59;;;;;;;3.40;2.20;;;;;;;14.60;35.18;101018.81;5031475;28;20048;-78
2021/04/14 14:30:04;;;;;;;3.83;2.53;;;;;;;14.43;34.95;101008.75;5031961;28;20048;-84
2021/04/14 14:33:09;;;;;;;3.33;2.00;;;;;;;14.32;34.14;101006.19;5038305;28;20148;-84
2021/04/14 14:36:22;;;;;;;4.05;2.47;;;;;;;14.28;33.96;101000.19;5035068;28;20052;-86
2021/04/14 14:39:55;;;;;;;4.63;2.33;;;;;;;14.21;33.71;100995.50;5031835;28;20048;-83
2021/04/14 14:43:28;;;;;;;4.53;2.13;;;;;;;14.18;34.19;100985.84;5030994;28;20052;-86
2021/04/14 14:46:41;;;;;;;3.33;1.97;;;;;;;14.25;34.61;100986.13;5031405;28;20145;-84